Van Nuys, CA (91411)

11:00 PM PDT on July 25, 2016 (GMT -0700)
Bassett St. and Nobel | | Change Station

Elev 755 ft 34.20 °N, 118.46 °W | Updated 6 minutes ago

Smoke
Smoke
78.0 °F
Feels Like 79 °F
N
3.2
Wind Variable Wind from ESE

Today
High -- | Low -- °F
--% Chance of Precip.
Yesterday
High -- | Low -- °F
Precip. -- in
Pressure 29.88 in
Visibility 10.0 miles
Clouds Clear
Heat Index 79 °F
Dew Point 59 °F
Humidity 52%
Rainfall 0.00 in
Snow Depth Not available.
6:00 AM 7:59 PM
Waning Gibbous, 58% visible
METAR KVNY 260551Z 09003KT 10SM FU CLR 25/12 A2991 RMK AO2 SLP117 T02500117 10372 20250 50013
Pressure 29.88 in
Visibility 10.0 miles
Clouds Clear
Heat Index 79 °F
Dew Point 59 °F
Humidity 52%
Rainfall 0.00 in
Snow Depth Not available.
6:00 AM 7:59 PM
Waning Gibbous, 58% visible
METAR KVNY 260551Z 09003KT 10SM FU CLR 25/12 A2991 RMK AO2 SLP117 T02500117 10372 20250 50013

10-Day Weather Forecast

Almanac

Astronomy

Jul. 25, 2016 Rise Set
Actual Time
Civil Twilight
Nautical Twilight
Astronomical Twilight
Moon
Length of Visible Light
Length of Day
Tomorrow will be .
, % of the Moon is Illuminated

Today's Extremes

State Highs State Lows

Community

WunderPhotos

Upload Photos

1,927,547 photos uploaded!

WunderBlog® & News

Nearby

Air Quality

  Air Quality AQ Index Pollutant
Not available.

Snow Depth

Station Depth Elevation

Earthquake Activity

City Distance Mag. Time & Date
Minimum magnitude displayed is 2.5.

Coastal Water Temperatures

Place Temperature

Stations

Nearby Weather Stations

Station Location Temp. Windchill Dew Point Humidity Wind Precip. Elev Updated Type
                   

Watches & Warnings

There are currently no watches in effect.